Time;durP1;ratioP1;P1;durP2;ratioP2;P2;SDS_P1;SDS_P2;PMS_P1;PMS_P2;Temp;Humidity;BMP_temperature;BMP_pressure;BME280_temperature;BME280_humidity;BME280_pressure;Samples;Min_cycle;Max_cycle;Signal;HPM_P1;HPM_P2
2022/11/08 00:01:50;;;;;;;17.20;3.80;;;12.90;99.90;;;;;;4992070;28;20046;-38
2022/11/08 00:04:18;;;;;;;17.13;3.20;;;12.90;99.90;;;;;;4992504;28;20054;-39
2022/11/08 00:14:58;;;;;;;11.85;3.15;;;12.90;99.90;;;;;;4992862;28;20050;-39
2022/11/08 00:17:27;;;;;;;17.58;4.00;;;12.90;99.90;;;;;;4989245;28;20058;-39
2022/11/08 00:19:54;;;;;;;22.45;3.22;;;13.00;99.90;;;;;;4991573;28;20455;-39
2022/11/08 00:22:21;;;;;;;16.58;3.35;;;13.00;99.90;;;;;;4992176;28;20081;-39
2022/11/08 00:24:48;;;;;;;14.77;3.10;;;13.00;99.90;;;;;;4990879;28;20050;-39
2022/11/08 00:27:16;;;;;;;15.75;3.67;;;12.90;99.90;;;;;;4984038;28;20046;-39
2022/11/08 00:29:43;;;;;;;16.55;3.40;;;12.90;99.90;;;;;;5010600;28;20406;-39
2022/11/08 00:32:11;;;;;;;14.20;2.97;;;12.90;99.90;;;;;;4996506;28;20049;-41
2022/11/08 00:34:40;;;;;;;14.68;3.38;;;13.00;99.90;;;;;;5006575;28;20597;-39
2022/11/08 00:37:06;;;;;;;18.48;3.58;;;13.00;99.90;;;;;;4994831;28;20104;-39
2022/11/08 00:39:33;;;;;;;17.48;3.42;;;12.90;99.90;;;;;;5012563;28;20053;-39
2022/11/08 00:42:00;;;;;;;20.33;3.75;;;12.90;99.90;;;;;;5005893;28;20541;-39
2022/11/08 00:44:27;;;;;;;17.13;3.22;;;12.90;99.90;;;;;;5004160;28;20130;-39
2022/11/08 00:46:54;;;;;;;11.30;2.80;;;12.90;99.90;;;;;;4997611;28;20058;-39
2022/11/08 00:49:21;;;;;;;19.73;3.67;;;12.90;99.90;;;;;;5004597;28;20049;-38
2022/11/08 00:51:49;;;;;;;14.95;3.13;;;12.90;99.90;;;;;;4992026;28;20058;-38
2022/11/08 00:54:17;;;;;;;17.50;3.33;;;12.80;99.90;;;;;;5010006;28;20093;-40
2022/11/08 00:56:44;;;;;;;19.50;3.42;;;12.80;99.90;;;;;;4997167;28;20050;-39
2022/11/08 00:59:12;;;;;;;22.40;3.70;;;12.70;99.90;;;;;;5011228;28;20061;-39
2022/11/08 01:01:39;;;;;;;18.67;3.67;;;12.70;99.90;;;;;;5010751;28;20085;-39
2022/11/08 01:04:05;;;;;;;17.98;3.53;;;12.70;99.90;;;;;;4994396;28;20049;-39
2022/11/08 01:06:32;;;;;;;15.70;2.75;;;12.70;99.90;;;;;;5007253;28;20050;-39
2022/11/08 01:09:01;;;;;;;12.77;3.28;;;12.60;99.90;;;;;;5002252;28;20077;-39
2022/11/08 01:11:28;;;;;;;20.65;3.38;;;12.60;99.90;;;;;;5004995;28;20133;-39
2022/11/08 01:13:56;;;;;;;18.10;3.97;;;12.60;99.90;;;;;;5006234;28;20462;-39
2022/11/08 01:16:24;;;;;;;16.58;3.60;;;12.60;99.90;;;;;;4991546;28;20046;-39
2022/11/08 01:18:52;;;;;;;16.17;3.75;;;12.60;99.90;;;;;;4997520;28;20085;-39
2022/11/08 01:21:18;;;;;;;12.63;2.83;;;12.50;99.90;;;;;;4982266;28;20086;-39
2022/11/08 01:23:45;;;;;;;13.13;3.08;;;12.50;99.90;;;;;;5009589;28;20050;-39
2022/11/08 01:26:14;;;;;;;13.90;3.05;;;12.50;99.90;;;;;;5014934;28;20109;-38
2022/11/08 01:28:41;;;;;;;18.52;3.58;;;12.50;99.90;;;;;;4996718;28;20578;-38
2022/11/08 01:31:09;;;;;;;14.70;3.10;;;12.40;99.90;;;;;;5014728;28;20104;-39
2022/11/08 01:33:36;;;;;;;16.65;3.22;;;12.40;99.90;;;;;;4987855;28;20046;-39
2022/11/08 01:36:03;;;;;;;16.88;3.60;;;12.40;99.90;;;;;;5008324;28;20108;-39
2022/11/08 01:38:30;;;;;;;18.33;3.05;;;12.40;99.90;;;;;;4997607;28;20062;-39
2022/11/08 01:40:56;;;;;;;12.07;3.20;;;12.40;99.90;;;;;;4993901;28;20116;-40
2022/11/08 01:43:43;;;;;;;16.80;3.13;;;12.40;99.90;;;;;;5013814;28;20046;-39
2022/11/08 01:46:29;;;;;;;14.38;3.30;;;12.40;99.90;;;;;;4982175;28;21110;-39
2022/11/08 01:48:58;;;;;;;22.73;3.75;;;12.30;99.90;;;;;;4997798;28;20578;-40
2022/11/08 01:51:27;;;;;;;15.32;3.22;;;12.30;99.90;;;;;;4991924;28;20077;-39
2022/11/08 01:53:53;;;;;;;16.13;3.40;;;12.30;99.90;;;;;;4996056;28;20494;-39
2022/11/08 01:56:20;;;;;;;12.13;3.40;;;12.30;99.90;;;;;;5009511;28;20532;-39
2022/11/08 01:58:48;;;;;;;15.27;3.33;;;12.30;99.90;;;;;;4978452;28;20092;-40
2022/11/08 02:01:15;;;;;;;15.63;3.20;;;12.30;99.90;;;;;;4995798;28;20556;-40
2022/11/08 02:03:42;;;;;;;15.23;3.10;;;12.20;99.90;;;;;;5013489;28;20497;-39
2022/11/08 02:06:09;;;;;;;15.38;3.15;;;12.20;99.90;;;;;;4995793;28;20098;-39
2022/11/08 02:08:37;;;;;;;15.88;3.15;;;12.20;99.90;;;;;;5001749;28;20081;-39
2022/11/08 02:11:04;;;;;;;16.63;3.88;;;12.20;99.90;;;;;;5010224;28;20096;-39
2022/11/08 02:13:31;;;;;;;19.77;3.80;;;12.10;99.90;;;;;;5003149;28;20081;-39
2022/11/08 02:16:00;;;;;;;24.70;3.80;;;12.10;99.90;;;;;;4981725;28;20061;-39
2022/11/08 02:18:28;;;;;;;17.23;3.15;;;12.10;99.90;;;;;;4989733;28;20050;-39
2022/11/08 02:20:58;;;;;;;17.38;3.28;;;12.10;99.90;;;;;;5012745;28;20139;-39
2022/11/08 02:23:26;;;;;;;15.63;3.33;;;12.10;99.90;;;;;;4999084;28;20101;-39
2022/11/08 02:25:55;;;;;;;16.58;3.28;;;12.10;99.90;;;;;;5011825;28;20132;-40
2022/11/08 02:28:21;;;;;;;17.40;3.72;;;12.00;99.90;;;;;;5008093;28;20514;-39
2022/11/08 02:30:48;;;;;;;14.23;2.92;;;12.00;99.90;;;;;;4993697;28;20065;-41
2022/11/08 02:33:16;;;;;;;12.48;3.03;;;12.00;99.90;;;;;;4997484;28;20132;-39
2022/11/08 02:35:43;;;;;;;19.70;3.75;;;11.90;99.90;;;;;;4995760;28;20042;-39
2022/11/08 02:38:10;;;;;;;15.75;3.63;;;11.90;99.90;;;;;;5014028;28;20486;-39
2022/11/08 02:40:47;;;;;;;17.85;3.20;;;11.90;99.90;;;;;;5013869;28;20050;-39
2022/11/08 02:43:15;;;;;;;14.25;3.38;;;11.90;99.90;;;;;;4979832;28;20383;-39
2022/11/08 02:45:42;;;;;;;10.82;3.00;;;11.90;99.90;;;;;;5006321;28;20140;-40
2022/11/08 02:48:09;;;;;;;16.05;3.40;;;11.90;99.90;;;;;;5014379;28;20131;-39
2022/11/08 02:50:36;;;;;;;16.25;3.05;;;11.90;99.90;;;;;;4994766;28;20061;-39
2022/11/08 02:53:03;;;;;;;16.15;2.92;;;11.80;99.90;;;;;;5004268;28;20081;-39
2022/11/08 02:55:29;;;;;;;13.63;3.42;;;11.80;99.90;;;;;;5011107;28;20104;-39
2022/11/08 02:57:57;;;;;;;16.05;2.88;;;11.80;99.90;;;;;;5011601;28;20057;-39
2022/11/08 03:00:25;;;;;;;11.07;3.33;;;11.80;99.90;;;;;;5006912;28;20468;-40
2022/11/08 03:02:52;;;;;;;17.90;3.13;;;11.80;99.90;;;;;;5005360;28;20078;-39
2022/11/08 03:05:19;;;;;;;13.40;3.08;;;11.80;99.90;;;;;;5001301;28;20138;-39
2022/11/08 03:07:46;;;;;;;10.18;2.38;;;11.80;99.90;;;;;;4995168;28;20058;-40
2022/11/08 03:10:13;;;;;;;13.38;3.40;;;11.70;99.90;;;;;;5007116;28;20089;-39
2022/11/08 03:12:40;;;;;;;14.65;3.00;;;11.70;99.90;;;;;;4980846;28;20463;-39
2022/11/08 03:15:08;;;;;;;14.13;3.42;;;11.70;99.90;;;;;;4994721;28;20073;-40
2022/11/08 03:17:36;;;;;;;16.65;3.25;;;11.70;99.90;;;;;;5006254;28;20054;-39
2022/11/08 03:20:03;;;;;;;9.35;3.08;;;11.60;99.90;;;;;;4999358;28;20108;-39
2022/11/08 03:22:30;;;;;;;15.88;3.70;;;11.60;99.90;;;;;;5009988;28;20136;-39
2022/11/08 03:24:57;;;;;;;11.43;2.90;;;11.60;99.90;;;;;;4999443;28;20077;-39
2022/11/08 03:27:24;;;;;;;12.10;3.20;;;11.60;99.90;;;;;;5006430;28;20132;-40
2022/11/08 03:29:50;;;;;;;10.43;2.85;;;11.60;99.90;;;;;;4984743;28;20504;-41
2022/11/08 03:32:17;;;;;;;14.20;3.38;;;11.60;99.90;;;;;;4985693;28;20550;-39
2022/11/08 03:34:45;;;;;;;12.02;3.22;;;11.50;99.90;;;;;;4997866;28;20042;-39
2022/11/08 03:37:12;;;;;;;13.60;3.20;;;11.50;99.90;;;;;;4999961;28;20461;-39
2022/11/08 03:39:39;;;;;;;15.98;3.50;;;11.50;99.90;;;;;;4998019;28;20553;-40
2022/11/08 03:42:06;;;;;;;14.00;3.33;;;11.50;99.90;;;;;;5012470;28;20453;-40
2022/11/08 03:44:33;;;;;;;11.20;3.00;;;11.50;99.90;;;;;;4984931;28;20131;-38
2022/11/08 03:47:00;;;;;;;11.35;3.03;;;11.60;99.90;;;;;;5006186;28;20141;-40
2022/11/08 03:49:27;;;;;;;16.92;3.65;;;11.50;99.90;;;;;;4994056;28;20136;-39
2022/11/08 03:51:55;;;;;;;17.33;3.55;;;11.40;99.90;;;;;;5002067;28;20494;-39
2022/11/08 03:54:22;;;;;;;18.98;3.80;;;11.40;99.90;;;;;;5007887;28;20096;-41
2022/11/08 03:56:49;;;;;;;13.57;3.20;;;11.40;99.90;;;;;;5009951;28;20073;-40
2022/11/08 03:59:15;;;;;;;9.50;3.45;;;11.40;99.90;;;;;;5008107;28;20124;-40
2022/11/08 04:01:42;;;;;;;14.75;3.08;;;11.40;99.90;;;;;;5001883;28;20050;-40
2022/11/08 04:04:09;;;;;;;13.93;3.55;;;11.40;99.90;;;;;;4994790;28;20085;-40
2022/11/08 04:06:36;;;;;;;12.13;3.53;;;11.40;99.90;;;;;;4994497;28;20050;-41
2022/11/08 04:09:04;;;;;;;12.75;3.25;;;11.40;99.90;;;;;;5011999;28;20046;-40
2022/11/08 04:16:59;;;;;;;9.23;3.20;;;11.40;99.90;;;;;;5001653;28;20046;-40
2022/11/08 04:22:10;;;;;;;11.93;3.17;;;11.40;99.90;;;;;;5001460;28;20136;-40
2022/11/08 04:24:38;;;;;;;12.05;3.70;;;11.40;99.90;;;;;;5010311;28;20073;-40
2022/11/08 04:27:05;;;;;;;9.48;2.90;;;11.40;99.90;;;;;;5011461;28;20057;-39
2022/11/08 04:29:32;;;;;;;12.88;3.15;;;11.40;99.90;;;;;;4988894;28;20053;-39
2022/11/08 04:31:58;;;;;;;12.75;3.58;;;11.40;99.90;;;;;;5000753;28;20506;-40
2022/11/08 04:34:25;;;;;;;13.68;3.35;;;11.50;99.90;;;;;;4993501;28;20105;-41
2022/11/08 04:36:52;;;;;;;12.93;3.13;;;11.50;99.90;;;;;;4993727;28;20082;-40
2022/11/08 04:39:19;;;;;;;11.93;2.80;;;11.50;99.90;;;;;;4982767;28;20107;-40
2022/11/08 04:41:47;;;;;;;10.13;3.38;;;11.50;99.90;;;;;;4994624;28;20085;-41
2022/11/08 04:44:17;;;;;;;10.13;2.90;;;11.50;99.90;;;;;;5001043;28;20494;-40
2022/11/08 04:46:43;;;;;;;13.70;3.20;;;11.50;99.90;;;;;;5000666;28;20137;-40
2022/11/08 04:49:10;;;;;;;12.80;3.25;;;11.40;99.90;;;;;;4991937;28;20092;-42
2022/11/08 04:51:37;;;;;;;12.73;3.00;;;11.40;99.90;;;;;;5007416;28;20506;-40
2022/11/08 04:54:06;;;;;;;10.45;2.85;;;11.40;99.90;;;;;;4994064;28;20046;-40
2022/11/08 04:56:33;;;;;;;15.15;3.35;;;11.40;99.90;;;;;;5006682;28;20050;-41
2022/11/08 04:59:01;;;;;;;12.60;3.17;;;11.40;99.90;;;;;;4998558;28;20129;-41
2022/11/08 05:01:29;;;;;;;12.45;2.95;;;11.40;99.90;;;;;;4989788;28;20135;-42
2022/11/08 05:03:56;;;;;;;12.85;2.42;;;11.40;99.90;;;;;;5006890;28;20054;-40
2022/11/08 05:06:23;;;;;;;13.27;3.08;;;11.40;99.90;;;;;;4995940;28;20061;-40
2022/11/08 05:08:50;;;;;;;10.57;2.80;;;11.40;99.90;;;;;;4988550;28;20136;-41
2022/11/08 05:11:17;;;;;;;9.00;2.80;;;11.40;99.90;;;;;;5016482;28;20565;-41
2022/11/08 05:13:44;;;;;;;9.85;2.63;;;11.40;99.90;;;;;;5012041;28;20085;-40
2022/11/08 05:16:14;;;;;;;10.88;2.95;;;11.40;99.90;;;;;;5012489;28;20085;-40
2022/11/08 05:18:41;;;;;;;13.13;2.53;;;11.40;99.90;;;;;;5012483;28;20085;-42
2022/11/08 05:23:54;;;;;;;10.13;2.78;;;11.30;99.90;;;;;;5011189;28;20414;-41
2022/11/08 05:26:20;;;;;;;13.00;2.90;;;11.30;99.90;;;;;;5013489;28;20045;-40
2022/11/08 05:28:47;;;;;;;12.20;2.78;;;11.30;99.90;;;;;;5015647;28;20062;-40
2022/11/08 05:31:16;;;;;;;7.65;2.20;;;11.30;99.90;;;;;;5015156;28;20042;-40
2022/11/08 05:33:43;;;;;;;16.02;2.75;;;11.30;99.90;;;;;;5005968;28;20112;-40
2022/11/08 05:36:11;;;;;;;10.05;3.15;;;11.30;99.90;;;;;;5011831;28;20050;-40
2022/11/08 05:38:38;;;;;;;11.77;3.20;;;11.30;99.90;;;;;;5011661;28;20077;-40
2022/11/08 05:41:05;;;;;;;15.35;3.28;;;11.30;99.90;;;;;;4997870;28;20544;-40
2022/11/08 05:43:32;;;;;;;9.82;2.63;;;11.20;99.90;;;;;;5011595;28;20502;-40
2022/11/08 05:45:59;;;;;;;8.10;2.20;;;11.20;99.90;;;;;;4989082;28;20573;-40
2022/11/08 05:48:27;;;;;;;12.50;3.08;;;11.20;99.90;;;;;;5011762;28;20077;-41
2022/11/08 05:50:53;;;;;;;8.88;2.45;;;11.20;99.90;;;;;;5013611;28;20065;-41
2022/11/08 05:53:20;;;;;;;13.77;2.85;;;11.20;99.90;;;;;;5012348;28;20125;-40
2022/11/08 05:55:48;;;;;;;9.02;2.75;;;11.10;99.90;;;;;;5013423;28;20133;-42
2022/11/08 05:58:15;;;;;;;11.35;2.83;;;11.20;99.90;;;;;;4997071;28;20129;-40
2022/11/08 06:00:42;;;;;;;9.40;2.65;;;11.20;99.90;;;;;;5003492;28;20050;-40
2022/11/08 06:03:09;;;;;;;10.38;3.03;;;11.20;99.90;;;;;;5011679;28;20073;-39
2022/11/08 06:05:37;;;;;;;8.35;2.70;;;11.20;99.90;;;;;;4997472;28;20085;-40
2022/11/08 06:08:04;;;;;;;5.72;2.10;;;11.20;99.90;;;;;;5014498;28;20111;-39
2022/11/08 06:10:31;;;;;;;12.43;2.95;;;11.20;99.90;;;;;;4995898;28;20105;-41
2022/11/08 06:12:59;;;;;;;10.90;3.10;;;11.20;99.90;;;;;;5005145;28;20108;-41
2022/11/08 06:15:26;;;;;;;12.43;2.58;;;11.20;99.90;;;;;;5005782;28;20058;-39
2022/11/08 06:17:53;;;;;;;9.88;2.90;;;11.20;99.90;;;;;;4991375;28;20058;-40
2022/11/08 06:20:19;;;;;;;12.07;2.42;;;11.10;99.90;;;;;;4997061;28;20235;-40
2022/11/08 06:22:48;;;;;;;7.03;2.58;;;11.10;99.90;;;;;;4993446;28;20050;-40
2022/11/08 06:25:14;;;;;;;9.55;2.45;;;11.10;99.90;;;;;;4988939;28;20055;-40
2022/11/08 06:27:41;;;;;;;12.45;3.30;;;11.10;99.90;;;;;;4991641;28;20062;-39
2022/11/08 06:30:09;;;;;;;13.57;2.60;;;11.10;99.90;;;;;;4995435;28;20058;-40
2022/11/08 06:32:36;;;;;;;8.13;2.90;;;11.00;99.90;;;;;;5003490;28;20510;-40
2022/11/08 06:35:03;;;;;;;14.35;3.17;;;11.00;99.90;;;;;;4988750;28;20103;-39
2022/11/08 06:37:30;;;;;;;8.52;2.80;;;11.00;99.90;;;;;;4988316;28;20038;-38
2022/11/08 06:39:58;;;;;;;12.00;2.97;;;11.10;99.90;;;;;;4988646;28;20081;-40
2022/11/08 06:42:25;;;;;;;14.43;2.83;;;11.00;99.90;;;;;;5006064;28;20057;-40
2022/11/08 06:44:51;;;;;;;11.57;3.53;;;11.10;99.90;;;;;;5005403;28;21194;-41
2022/11/08 06:47:18;;;;;;;13.43;2.95;;;11.10;99.90;;;;;;4989939;28;20080;-42
2022/11/08 06:49:45;;;;;;;11.65;3.08;;;11.10;99.90;;;;;;5000722;28;20050;-39
2022/11/08 06:52:12;;;;;;;9.65;2.97;;;11.10;99.90;;;;;;5004324;28;20081;-40
2022/11/08 06:54:39;;;;;;;13.20;3.05;;;11.10;99.90;;;;;;4981760;28;20463;-41
2022/11/08 06:57:07;;;;;;;12.95;3.40;;;11.10;99.90;;;;;;4993375;28;20081;-41
2022/11/08 06:59:34;;;;;;;11.95;3.78;;;11.10;99.90;;;;;;4996226;28;20089;-41
2022/11/08 07:02:00;;;;;;;12.00;3.30;;;11.10;99.90;;;;;;5009661;28;20077;-40
2022/11/08 07:04:27;;;;;;;8.73;3.30;;;11.00;99.90;;;;;;5013698;28;20132;-40
2022/11/08 07:06:55;;;;;;;9.90;3.58;;;11.10;99.90;;;;;;5012061;28;20411;-40
2022/11/08 07:09:22;;;;;;;8.13;3.33;;;11.10;99.90;;;;;;4995329;28;20115;-42
2022/11/08 07:11:49;;;;;;;10.40;3.10;;;11.00;99.90;;;;;;4995445;28;20137;-43
2022/11/08 07:14:17;;;;;;;10.07;3.38;;;11.10;99.90;;;;;;5010192;28;20050;-41
2022/11/08 07:16:44;;;;;;;11.82;3.38;;;11.10;99.90;;;;;;4989889;28;20054;-40
2022/11/08 07:19:10;;;;;;;12.95;3.22;;;11.10;99.90;;;;;;5000003;28;20081;-42
2022/11/08 07:21:37;;;;;;;19.92;3.72;;;11.10;99.90;;;;;;4982517;28;20430;-40
2022/11/08 07:24:04;;;;;;;15.60;3.20;;;11.10;99.90;;;;;;4994263;28;20216;-41
2022/11/08 07:26:31;;;;;;;13.52;3.40;;;11.20;99.90;;;;;;4992259;28;20105;-44
2022/11/08 07:28:58;;;;;;;11.80;3.03;;;11.20;99.90;;;;;;5005929;28;20088;-40
2022/11/08 07:31:26;;;;;;;13.60;3.55;;;11.20;99.90;;;;;;4995809;28;20054;-39
2022/11/08 07:33:53;;;;;;;12.45;3.15;;;11.20;99.90;;;;;;5009436;28;20053;-40
2022/11/08 07:36:20;;;;;;;12.35;2.80;;;11.20;99.90;;;;;;5010386;28;20133;-40
2022/11/08 07:38:46;;;;;;;12.70;3.25;;;11.20;99.90;;;;;;5011612;28;20088;-40
2022/11/08 07:41:13;;;;;;;11.05;3.33;;;11.20;99.90;;;;;;4995146;28;20137;-40
2022/11/08 07:43:40;;;;;;;14.68;3.15;;;11.20;99.90;;;;;;5011897;28;20125;-40
2022/11/08 07:46:07;;;;;;;7.57;2.78;;;11.30;99.90;;;;;;5011370;28;20081;-40
2022/11/08 07:48:35;;;;;;;8.73;2.55;;;11.30;99.90;;;;;;4996427;28;20477;-39
2022/11/08 07:51:02;;;;;;;10.00;4.20;;;11.30;99.90;;;;;;4990026;28;20141;-39
2022/11/08 07:53:29;;;;;;;6.47;2.67;;;11.30;99.90;;;;;;5006374;28;20046;-40
2022/11/08 07:55:57;;;;;;;8.30;2.67;;;11.40;99.90;;;;;;5005470;28;20495;-39
2022/11/08 07:58:24;;;;;;;10.10;3.13;;;11.40;99.90;;;;;;5010206;28;20056;-39
2022/11/08 08:00:50;;;;;;;9.30;3.20;;;11.40;99.90;;;;;;4995264;28;20072;-40
2022/11/08 08:03:17;;;;;;;7.45;2.72;;;11.40;99.90;;;;;;5011817;28;20141;-40
2022/11/08 08:05:45;;;;;;;9.38;2.80;;;11.40;99.90;;;;;;5009621;28;20050;-41
2022/11/08 08:08:13;;;;;;;7.57;2.63;;;11.40;99.90;;;;;;5011197;28;20129;-40
2022/11/08 08:10:40;;;;;;;9.45;2.63;;;11.50;99.90;;;;;;5006850;28;20085;-40
2022/11/08 08:13:06;;;;;;;8.00;2.70;;;11.50;99.90;;;;;;4993953;28;20112;-39
2022/11/08 08:15:33;;;;;;;9.45;3.08;;;11.60;99.90;;;;;;5009544;28;20123;-40
2022/11/08 08:18:01;;;;;;;9.38;2.85;;;11.60;99.90;;;;;;4999912;28;20439;-40
2022/11/08 08:20:27;;;;;;;9.05;2.60;;;11.70;99.90;;;;;;4993453;28;20398;-39
2022/11/08 08:22:56;;;;;;;10.73;2.70;;;11.70;99.90;;;;;;4991593;28;20136;-40
2022/11/08 08:25:22;;;;;;;6.97;2.40;;;11.70;99.90;;;;;;4984799;28;20131;-41
2022/11/08 08:27:50;;;;;;;8.20;2.53;;;11.80;99.90;;;;;;4986991;28;20121;-40
2022/11/08 08:30:17;;;;;;;8.93;2.83;;;11.80;99.90;;;;;;5008975;28;20049;-39
2022/11/08 08:32:44;;;;;;;9.82;2.67;;;11.80;99.90;;;;;;4992613;28;20358;-40
2022/11/08 08:35:11;;;;;;;5.57;2.25;;;11.90;99.90;;;;;;4979677;28;20054;-40
2022/11/08 08:37:38;;;;;;;6.32;2.38;;;12.00;99.90;;;;;;5008710;28;20121;-43
2022/11/08 08:40:07;;;;;;;6.78;2.50;;;12.10;99.90;;;;;;5009251;28;20077;-40
2022/11/08 08:42:34;;;;;;;6.93;2.38;;;12.10;99.90;;;;;;5010128;28;20058;-40
2022/11/08 08:45:01;;;;;;;9.00;2.67;;;12.20;99.90;;;;;;5009994;28;20542;-40
2022/11/08 08:47:28;;;;;;;5.63;2.90;;;12.20;99.90;;;;;;5009721;28;20116;-41
2022/11/08 08:49:55;;;;;;;8.35;2.67;;;12.30;99.90;;;;;;5012184;28;20085;-40
2022/11/08 08:52:21;;;;;;;5.47;2.42;;;12.30;99.90;;;;;;4995506;28;20045;-39
2022/11/08 08:54:48;;;;;;;10.90;2.65;;;12.30;99.90;;;;;;5012591;28;20667;-40
2022/11/08 08:57:16;;;;;;;8.50;2.83;;;12.40;99.90;;;;;;4994860;28;20057;-40
2022/11/08 08:59:43;;;;;;;7.07;2.38;;;12.50;99.90;;;;;;4994832;28;20129;-39
2022/11/08 09:02:10;;;;;;;11.07;2.30;;;12.50;99.90;;;;;;4989013;28;20054;-39
2022/11/08 09:04:37;;;;;;;7.18;2.45;;;12.60;99.90;;;;;;4988684;28;20112;-40
2022/11/08 09:07:04;;;;;;;6.53;2.42;;;12.60;99.90;;;;;;4994093;28;20057;-40
2022/11/08 09:09:32;;;;;;;7.07;2.53;;;12.70;99.90;;;;;;4992701;28;20057;-40
2022/11/08 09:11:59;;;;;;;5.88;2.38;;;12.80;99.90;;;;;;4994997;28;20053;-40
2022/11/08 09:14:28;;;;;;;12.25;3.10;;;12.90;99.90;;;;;;5012812;28;20434;-39
2022/11/08 09:16:56;;;;;;;3.90;2.17;;;13.00;99.90;;;;;;4992133;28;20474;-39
2022/11/08 09:19:22;;;;;;;6.93;2.70;;;13.00;99.90;;;;;;4992418;28;20144;-39
2022/11/08 09:21:49;;;;;;;8.50;2.85;;;13.10;99.90;;;;;;4988916;28;20050;-41
2022/11/08 09:24:16;;;;;;;7.20;2.50;;;13.10;99.90;;;;;;4978758;28;20081;-39
2022/11/08 09:26:43;;;;;;;7.43;2.53;;;13.20;99.90;;;;;;4997918;28;20042;-40
2022/11/08 09:29:10;;;;;;;7.00;2.40;;;13.30;99.90;;;;;;4974364;28;20138;-39
2022/11/08 09:31:38;;;;;;;9.35;2.53;;;13.30;99.90;;;;;;4999106;28;20105;-39
2022/11/08 09:34:05;;;;;;;7.75;2.55;;;13.40;99.90;;;;;;4994609;28;20089;-40
2022/11/08 09:36:32;;;;;;;9.95;2.60;;;13.40;99.90;;;;;;4999939;28;20077;-40
2022/11/08 09:38:58;;;;;;;7.78;3.20;;;13.40;99.90;;;;;;4997944;28;20065;-38
2022/11/08 09:41:44;;;;;;;9.05;2.90;;;13.50;99.90;;;;;;4996593;28;20077;-38
2022/11/08 09:44:18;;;;;;;9.85;2.70;;;13.50;99.90;;;;;;5008608;28;20116;-40
2022/11/08 09:46:49;;;;;;;9.27;3.20;;;13.50;99.90;;;;;;5010103;28;20049;-38
2022/11/08 09:49:18;;;;;;;9.30;2.83;;;13.50;99.90;;;;;;5013935;28;20060;-39
2022/11/08 09:51:45;;;;;;;8.35;2.80;;;13.50;99.90;;;;;;5013676;28;20105;-39
2022/11/08 09:54:14;;;;;;;8.02;2.78;;;13.50;99.90;;;;;;5014490;28;20133;-39
2022/11/08 09:56:41;;;;;;;5.82;2.70;;;13.50;99.90;;;;;;4997917;28;20542;-38
2022/11/08 09:59:12;;;;;;;6.53;2.13;;;13.50;99.90;;;;;;5014251;28;20077;-39
2022/11/08 10:01:39;;;;;;;10.13;2.45;;;13.60;99.90;;;;;;5002814;28;20137;-39
2022/11/08 10:04:12;;;;;;;6.97;2.25;;;13.60;99.90;;;;;;4990061;28;20058;-38
2022/11/08 10:06:46;;;;;;;6.40;2.50;;;13.60;99.90;;;;;;4995278;28;20121;-39
2022/11/08 10:09:22;;;;;;;5.65;2.50;;;13.60;99.90;;;;;;5008849;28;20852;-39
2022/11/08 10:11:56;;;;;;;8.85;2.30;;;13.70;99.90;;;;;;4983643;28;20561;-38
2022/11/08 10:14:31;;;;;;;4.55;1.95;;;13.70;99.90;;;;;;4987700;28;20046;-39
2022/11/08 10:17:02;;;;;;;5.95;2.28;;;13.70;99.90;;;;;;5014671;28;20132;-39
2022/11/08 10:19:38;;;;;;;8.32;1.88;;;13.70;99.90;;;;;;5008794;28;20074;-39
2022/11/08 10:22:08;;;;;;;8.50;2.22;;;13.80;99.90;;;;;;4996287;28;20057;-38
2022/11/08 10:24:36;;;;;;;9.25;2.25;;;13.80;99.90;;;;;;4992959;28;20062;-39
2022/11/08 10:27:03;;;;;;;4.82;1.90;;;13.80;99.90;;;;;;5013090;28;20141;-39
2022/11/08 10:29:34;;;;;;;6.15;2.17;;;13.90;99.90;;;;;;5011927;28;20411;-38
2022/11/08 10:32:03;;;;;;;5.78;2.20;;;13.90;99.90;;;;;;5007897;28;20133;-38
2022/11/08 10:34:39;;;;;;;7.13;2.28;;;13.90;99.90;;;;;;4980520;28;20497;-40
2022/11/08 10:37:06;;;;;;;7.80;2.08;;;14.00;99.90;;;;;;4996044;28;20334;-38
2022/11/08 10:39:37;;;;;;;5.78;2.22;;;14.00;99.90;;;;;;5010364;28;20209;-37
2022/11/08 10:42:06;;;;;;;3.83;1.92;;;14.00;99.90;;;;;;5012674;28;20111;-38
2022/11/08 10:44:33;;;;;;;5.47;2.22;;;14.00;99.90;;;;;;5013942;28;20081;-38
2022/11/08 10:47:00;;;;;;;4.20;2.42;;;13.90;99.90;;;;;;5013074;28;20107;-38
2022/11/08 10:49:29;;;;;;;3.90;1.73;;;13.90;99.90;;;;;;4997589;28;20178;-38
2022/11/08 10:51:58;;;;;;;8.68;1.88;;;13.90;99.90;;;;;;4991042;28;20108;-38
2022/11/08 10:54:42;;;;;;;8.18;2.38;;;13.80;99.90;;;;;;5010515;28;20144;-40
2022/11/08 10:57:09;;;;;;;4.97;1.83;;;13.80;99.90;;;;;;4989324;28;20061;-40
2022/11/08 10:59:36;;;;;;;7.90;2.22;;;13.80;99.90;;;;;;4996219;28;20101;-37
2022/11/08 11:02:03;;;;;;;6.40;2.03;;;13.70;99.90;;;;;;5012614;28;20432;-37
2022/11/08 11:04:30;;;;;;;3.65;1.70;;;13.70;99.90;;;;;;4997797;28;20508;-38
2022/11/08 11:07:02;;;;;;;5.35;1.90;;;13.70;99.90;;;;;;5008009;28;20088;-39
2022/11/08 11:09:29;;;;;;;5.22;2.00;;;13.70;99.90;;;;;;5013060;28;20129;-37
2022/11/08 11:11:56;;;;;;;6.88;2.10;;;13.70;99.90;;;;;;5012921;28;20085;-38
2022/11/08 11:14:23;;;;;;;8.73;2.00;;;13.80;99.90;;;;;;4995764;28;20089;-38
2022/11/08 11:16:54;;;;;;;4.22;2.47;;;13.80;99.90;;;;;;5004483;28;20046;-38
2022/11/08 11:19:21;;;;;;;8.57;1.85;;;13.90;99.90;;;;;;4993564;28;20046;-38
2022/11/08 11:21:49;;;;;;;7.35;2.13;;;13.90;99.90;;;;;;4995397;28;20141;-39
2022/11/08 11:24:19;;;;;;;5.47;2.15;;;13.90;99.90;;;;;;4984025;28;20054;-39
2022/11/08 11:26:46;;;;;;;10.30;2.00;;;14.00;99.90;;;;;;4995093;28;20085;-38
2022/11/08 11:29:18;;;;;;;3.63;2.05;;;14.10;99.90;;;;;;4994553;28;20085;-38
2022/11/08 11:31:46;;;;;;;7.85;2.53;;;14.10;99.90;;;;;;5012270;28;20084;-38
2022/11/08 11:34:33;;;;;;;5.82;2.05;;;14.10;99.90;;;;;;4993732;28;20112;-38
2022/11/08 11:37:04;;;;;;;5.43;2.20;;;14.20;99.90;;;;;;5011349;28;20097;-39
2022/11/08 11:39:35;;;;;;;6.18;2.05;;;14.20;99.90;;;;;;5008432;28;20124;-37
2022/11/08 11:42:04;;;;;;;6.70;2.20;;;14.20;99.90;;;;;;4995500;28;20141;-38
2022/11/08 11:44:33;;;;;;;3.92;1.80;;;14.30;99.90;;;;;;4999829;28;20148;-38
2022/11/08 11:47:04;;;;;;;8.07;1.75;;;14.30;99.90;;;;;;5011688;28;20406;-37
2022/11/08 11:49:31;;;;;;;5.75;2.30;;;14.30;99.90;;;;;;4994580;28;20096;-37
2022/11/08 11:51:58;;;;;;;10.70;2.13;;;14.30;99.90;;;;;;5012789;28;20502;-37
2022/11/08 11:54:27;;;;;;;7.82;2.42;;;14.30;99.90;;;;;;4995283;28;20498;-38
2022/11/08 11:56:56;;;;;;;4.50;1.90;;;14.40;99.90;;;;;;5012872;28;20105;-36
2022/11/08 11:59:38;;;;;;;4.07;1.80;;;14.40;99.90;;;;;;5008301;28;20471;-38
2022/11/08 12:02:41;;;;;;;7.22;2.20;;;14.40;99.90;;;;;;5012224;28;20084;-37
2022/11/08 12:05:25;;;;;;;4.53;2.15;;;14.50;99.90;;;;;;5007438;28;20050;-39
2022/11/08 12:07:56;;;;;;;4.13;2.13;;;14.50;99.90;;;;;;4980565;28;20094;-36
2022/11/08 12:10:25;;;;;;;8.07;2.42;;;14.50;99.90;;;;;;5002498;28;20073;-37
2022/11/08 12:12:58;;;;;;;5.22;2.08;;;14.60;99.90;;;;;;4988229;28;20131;-37
2022/11/08 12:15:27;;;;;;;6.75;1.90;;;14.70;99.90;;;;;;4985527;28;20136;-37
2022/11/08 12:18:07;;;;;;;6.28;2.40;;;14.70;99.90;;;;;;5011110;28;20498;-37
2022/11/08 12:20:50;;;;;;;7.07;1.88;;;14.70;99.90;;;;;;4993483;28;20046;-37
2022/11/08 12:23:37;;;;;;;5.55;1.85;;;14.70;99.90;;;;;;5001696;28;20108;-38
2022/11/08 12:26:08;;;;;;;3.97;1.73;;;14.70;99.90;;;;;;5010189;28;20053;-37
2022/11/08 12:28:46;;;;;;;6.38;2.08;;;14.70;99.90;;;;;;5012106;28;20108;-37
2022/11/08 12:31:18;;;;;;;6.82;2.33;;;14.70;99.90;;;;;;4989860;28;20060;-38
2022/11/08 12:33:49;;;;;;;7.97;2.00;;;14.70;99.90;;;;;;5006928;28;20049;-37
2022/11/08 12:36:18;;;;;;;6.22;2.00;;;14.60;99.90;;;;;;4993430;28;20144;-37
2022/11/08 12:38:50;;;;;;;3.88;1.90;;;14.60;99.90;;;;;;5009231;28;20050;-37
2022/11/08 12:41:20;;;;;;;13.43;2.20;;;14.60;99.90;;;;;;5007794;28;20351;-37
2022/11/08 12:44:11;;;;;;;5.25;2.28;;;14.60;99.90;;;;;;5011996;28;20124;-38
2022/11/08 12:46:40;;;;;;;6.45;1.85;;;14.60;99.90;;;;;;4994282;28;20096;-37
2022/11/08 12:49:22;;;;;;;5.57;2.33;;;14.60;99.90;;;;;;5012142;28;20136;-37
2022/11/08 12:51:56;;;;;;;5.95;1.85;;;14.60;99.90;;;;;;4993173;28;20053;-37
2022/11/08 12:54:26;;;;;;;4.38;2.00;;;14.60;99.90;;;;;;5011336;28;20081;-38
2022/11/08 12:56:54;;;;;;;5.20;2.10;;;14.60;99.90;;;;;;4993206;28;20100;-37
2022/11/08 12:59:23;;;;;;;9.02;2.58;;;14.60;99.90;;;;;;4994129;28;20104;-38
2022/11/08 13:01:50;;;;;;;4.25;1.90;;;14.60;99.90;;;;;;4990516;28;20096;-37
2022/11/08 13:04:34;;;;;;;5.45;2.67;;;14.60;99.90;;;;;;5006699;28;20138;-38
2022/11/08 13:07:05;;;;;;;5.90;1.98;;;14.60;99.90;;;;;;5005796;28;20041;-37